Bellflower, Illinois
Current Conditions -  °F | °C
As of 11:10 AM on Saturday 25 Oct 2014 (Local Time) from KTIP Reporting Station
Clear Clear  
Wind Chill: 65°   Ceiling: Unl
Heat Index: 65°   Visibility: 7mi
Dew Point: 57°   Wind: 9mph
Humidity: 76%   Direction: 290°WNW
Pressure: 29.99"   Gusts: NA
Location:  40.34°N, 88.53°W
Report Text: KTIP 251610Z AUTO 29008KT 7SM CLR 18/14 A2999 RMK AO2 T01820139
Loading
Personal Weather Stations






























Interactive Weather Map
Tropical Storm Tracking
New forecast layout! Learn more

10-Day Weather Forecast

Advertisements
Track Severe Weather on mobile